Tuesday, October 23, 2018, 9:18 PM EDT
Back to Local

KART, Watertown International Airport

Location: Dexter, NY, United States Lat: 43.983
Local Time: 9:18 PM EDT ( 1:18 GMT) Lon: -76.033
Time Zone: US/Eastern Elev: 324 ft

Show me the last for .
Show Decoded

2018-10-23 20:56 METAR KART 240056Z AUTO 36006KT 10SM BKN035 BKN110 08/04 A2998 RMK AO2 SLP155
                 T00780044 =
2018-10-23 19:56 METAR KART 232356Z AUTO 01003KT 10SM OVC039 08/05 A2997 RMK AO2 SLP150 60000
                 T00780050 10117 20067 51012 =
2018-10-23 18:56 METAR KART 232256Z AUTO 00000KT 10SM BKN034 OVC080 07/05 A2996 RMK AO2 SLP148
                 T00720050 =
2018-10-23 17:56 METAR KART 232156Z AUTO 22003KT 10SM FEW034 OVC075 08/06 A2994 RMK AO2 RAE2058
                 SLP143 P0000 T00780061 =
2018-10-23 16:56 METAR KART 232056Z AUTO 00000KT 10SM -RA FEW028 BKN046 OVC060 08/06 A2993 RMK
                 AO2 RAB02 SLP139 P0000 60000 T00830056 53008 =
2018-10-23 15:56 METAR KART 231956Z AUTO 29006KT 10SM SCT033 OVC075 10/05 A2992 RMK AO2 SLP134
                 T01000050 =
2018-10-23 14:56 METAR KART 231856Z AUTO 26004KT 10SM BKN050 BKN120 11/04 A2990 RMK AO2 SLP129
                 T01060039 =
2018-10-23 13:56 METAR KART 231756Z AUTO 29004KT 10SM SCT055 OVC070 11/03 A2991 RMK AO2 SLP130
                 T01060033 10111 20033 56012 =
2018-10-23 12:56 METAR KART 231656Z AUTO 27005KT 10SM OVC055 11/03 A2991 RMK AO2 SLP131 T01060033
                 =
2018-10-23 11:56 METAR KART 231556Z AUTO 22005KT 10SM SCT055 BKN070 11/03 A2993 RMK AO2 SLP137
                 T01060028 =
2018-10-23 10:56 METAR KART 231456Z AUTO 36003KT 10SM SCT060 OVC085 11/06 A2994 RMK AO2 SLP142
                 T01060056 58009 =
2018-10-23 09:56 METAR KART 231356Z AUTO 11003KT 10SM OVC090 06/04 A2995 RMK AO2 SLP145 T00610039
                 =
2018-10-23 08:56 METAR KART 231256Z AUTO 00000KT 10SM BKN065 OVC085 04/04 A2997 RMK AO2 SLP153
                 T00440039 =
2018-10-23 07:56 METAR KART 231156Z AUTO 07004KT 9SM OVC070 03/03 A2997 RMK AO2 SLP152 70005
                 T00330028 10033 21006 56011 =
2018-10-23 06:56 METAR KART 231056Z AUTO 08004KT 10SM OVC060 03/02 A2998 RMK AO2 SLP154 T00280022
                 =
2018-10-23 05:56 METAR KART 230956Z AUTO 08005KT 10SM OVC060 02/01 A2999 RMK AO2 SLP159 T00170011
                 =
2018-10-23 04:56 METAR KART 230856Z AUTO 07004KT 10SM OVC055 01/00 A3000 RMK AO2 SLP163 T00060000
                 56009 =
2018-10-23 03:56 METAR KART 230756Z AUTO 08004KT 10SM SCT049 BKN060 00/M01 A3001 RMK AO2 SLP164
                 T00001006 =
2018-10-23 02:56 METAR KART 230656Z AUTO 07004KT 8SM FEW050 00/M01 A3002 RMK AO2 SLP169 T00001006
                 =
2018-10-23 01:56 METAR KART 230556Z AUTO 00000KT 9SM BKN060 01/01 A3003 RMK AO2 SLP173 T00060006
                 10056 20006 58014 =
2018-10-23 00:56 METAR KART 230456Z AUTO 00000KT 6SM BR FEW060 SCT075 01/01 A3005 RMK AO2 SLP179
                 T00110011 400780000 =
2018-10-22 23:56 METAR KART 230356Z AUTO 04003KT 9SM BKN075 02/02 A3006 RMK AO2 SLP183 T00170017
                 =
2018-10-22 22:56 METAR KART 230256Z AUTO 02003KT 10SM OVC075 03/03 A3007 RMK AO2 SLP186 T00330033
                 51001 =
2018-10-22 21:56 METAR KART 230156Z AUTO 08003KT 9SM OVC070 04/04 A3007 RMK AO2 SLP186 T00440039
                 =

Support USWX by starting your Amazon purchase here.